Auke Bay, AK

4:01 PM AKDT on October 30, 2014 (GMT -0800)
Auke Bay | Change Station
CLOSE
Current Station
Personal Weather Station
Location: Juneau, AK
Elevation: 82 ft
Nearby Weather Stations

Elev 82 ft 58.38 °N, 134.66 °W | Updated 55 seconds ago

Overcast
Overcast
40.6 °F
Feels Like 41 °F
N
0.0
Wind Variable Wind from WSW
Gusts 0.0 mph

Today
High -- | Low -- °F
--% Chance of Precip.
Yesterday
High -- | Low -- °F
Precip. -- in
8:09 AM 5:13 PM
Waxing Crescent, 49% visible
Pressure 29.43 in
Visibility 7.0 miles
Clouds Few 100 ft
Mostly Cloudy 2300 ft
Overcast 4200 ft
Windchill 41 °F
Dew Point 41 °F
Humidity 100%
Rainfall 0.33 in
Snow Depth Not available.
UV 0 out of 12
Pollen Not available.
Air Quality Not available.
Flu Activity Not available.
METAR PAJN 302353Z 09006KT 7SM FEW001 BKN023 OVC042 05/04 A2943 RMK AO2 RAE29 SLP965 PRESENT WX VCSH ALQDS P0000 60019 T00500039 10061 20050 55006

More Conditions Fewer Conditions

Pressure 29.43 in
Visibility 7.0 miles
Clouds Few 100 ft
Mostly Cloudy 2300 ft
Overcast 4200 ft
Windchill 41 °F
Dew Point 41 °F
Humidity 100%
Rainfall 0.33 in
Snow Depth Not available.
UV 0 out of 12
Pollen Not available.
Air Quality Not available.
Flu Activity Not available.
METAR PAJN 302353Z 09006KT 7SM FEW001 BKN023 OVC042 05/04 A2943 RMK AO2 RAE29 SLP965 PRESENT WX VCSH ALQDS P0000 60019 T00500039 10061 20050 55006

More Conditions Fewer Conditions

10-Day Weather Forecast

Almanac

Astronomy

Oct. 30, 2014 Rise Set
Actual Time
Civil Twilight
Nautical Twilight
Astronomical Twilight
Moon
Length of Visible Light
Length of Day
Tomorrow will be .
, % of the Moon is Illuminated

Today's Extremes

State Highs State Lows

Community

WunderPhotos

Upload Photos

1,766,501 photos uploaded!

WunderBlogs® & News

Nearby

Air Quality

  Air Quality AQ Index Pollutant
Not available.

Snow Depth

Station Depth Elevation

Earthquake Activity

City Distance Mag. Time & Date
Minimum magnitude displayed is 2.5.

Coastal Water Temperatures

Place Temperature

Nearby Weather Stations